Saint Louis, Missouri
Traffic Map
Current Weather Conditions
Saint Louis, Missouri
Clear
Clear
12°
Feels Like: 12°
Wind Chill: 12° Ceiling: Unl
Heat Index: 12° Visibility: 10mi
Dew Point: Wind: 0mph
Humidity: 59% Direction: ° ()
Pressure: 30.08in Gusts: 0mph
Raw Report DataKCPS 280253Z AUTO 00000KT 10SM CLR 12/04 A3008 RMK AO2 SLP186 T01220044 53015
Traffic Incident Summary
Active as of:
Severity:
Category:
InformationThere was an issue retrieving the traffic information for this location. Please try a different location or try again shortly.
Advertisements
Track Severe Weather on mobile